createdAt,value
2023-02-02T00:01:52.070Z,-2.30
2023-02-02T00:04:29.316Z,-2.30
2023-02-02T00:07:05.389Z,-2.29
2023-02-02T00:09:38.535Z,-2.28
2023-02-02T00:12:11.744Z,-2.24
2023-02-02T00:14:44.772Z,-2.27
2023-02-02T00:17:17.615Z,-2.30
2023-02-02T00:19:50.892Z,-2.27
2023-02-02T00:22:23.891Z,-2.21
2023-02-02T00:24:57.078Z,-2.15
2023-02-02T00:27:29.788Z,-2.12
2023-02-02T00:30:02.740Z,-2.10
2023-02-02T00:32:36.131Z,-2.02
2023-02-02T00:35:10.327Z,-1.95
2023-02-02T00:37:44.458Z,-1.89
2023-02-02T00:40:18.181Z,-1.82
2023-02-02T00:42:51.560Z,-1.81
2023-02-02T00:45:26.505Z,-1.78
2023-02-02T00:47:59.683Z,-1.78
2023-02-02T00:50:33.322Z,-1.75
2023-02-02T00:53:07.233Z,-1.76
2023-02-02T00:55:40.253Z,-1.78
2023-02-02T00:58:13.326Z,-1.78
2023-02-02T01:00:46.289Z,-1.80
2023-02-02T01:03:20.006Z,-1.79
2023-02-02T01:05:53.044Z,-1.80
2023-02-02T01:08:25.874Z,-1.79
2023-02-02T01:11:03.570Z,-1.79
2023-02-02T01:13:37.525Z,-1.78
2023-02-02T01:16:10.563Z,-1.77
2023-02-02T01:18:44.267Z,-1.74
2023-02-02T01:21:17.366Z,-1.75
2023-02-02T01:23:50.474Z,-1.73
2023-02-02T01:26:23.494Z,-1.72
2023-02-02T01:28:56.352Z,-1.74
2023-02-02T01:31:29.654Z,-1.74
2023-02-02T01:34:04.251Z,-1.78
2023-02-02T01:36:37.354Z,-1.82
2023-02-02T01:39:10.482Z,-1.84
2023-02-02T01:41:44.008Z,-1.89
2023-02-02T01:44:54.691Z,-1.90
2023-02-02T01:47:30.753Z,-1.90
2023-02-02T01:50:03.809Z,-1.90
2023-02-02T01:52:37.329Z,-1.93
2023-02-02T01:55:13.079Z,-1.88
2023-02-02T01:58:01.768Z,-1.86
2023-02-02T02:00:34.832Z,-1.80
2023-02-02T02:03:12.757Z,-1.77
2023-02-02T02:05:53.387Z,-1.74
2023-02-02T02:08:40.699Z,-1.74
2023-02-02T02:11:14.018Z,-1.76
2023-02-02T02:13:48.593Z,-1.72
2023-02-02T02:16:55.011Z,-1.68
2023-02-02T02:20:41.254Z,-1.65
2023-02-02T02:23:48.660Z,-1.59
2023-02-02T02:26:57.583Z,-1.56
2023-02-02T02:29:54.712Z,-1.57
2023-02-02T02:32:56.295Z,-1.60
2023-02-02T02:35:33.945Z,-1.57
2023-02-02T02:38:41.797Z,-1.59
2023-02-02T02:41:22.536Z,-1.61
2023-02-02T02:44:02.843Z,-1.57
2023-02-02T02:46:36.947Z,-1.54
2023-02-02T02:49:10.409Z,-1.57
2023-02-02T02:51:52.276Z,-1.68
2023-02-02T02:54:39.959Z,-1.80
2023-02-02T02:57:33.836Z,-1.80
2023-02-02T03:00:33.099Z,-1.80
2023-02-02T03:03:37.901Z,-1.79
2023-02-02T03:06:22.467Z,-1.80
2023-02-02T03:09:01.741Z,-1.77
2023-02-02T03:11:36.466Z,-1.78
2023-02-02T03:14:10.104Z,-1.80
2023-02-02T03:16:43.198Z,-1.82
2023-02-02T03:19:16.797Z,-1.84
2023-02-02T03:21:49.690Z,-1.86
2023-02-02T03:24:22.925Z,-1.86
2023-02-02T03:26:56.043Z,-1.87
2023-02-02T03:29:29.665Z,-1.84
2023-02-02T03:32:02.238Z,-1.80
2023-02-02T03:34:35.805Z,-1.77
2023-02-02T03:37:09.062Z,-1.82
2023-02-02T03:39:43.145Z,-1.87
2023-02-02T03:42:16.161Z,-1.89
2023-02-02T03:44:49.224Z,-1.87
2023-02-02T03:47:22.144Z,-1.87
2023-02-02T03:49:55.447Z,-1.84
2023-02-02T03:52:28.827Z,-1.83
2023-02-02T03:55:01.972Z,-1.79
2023-02-02T03:57:34.826Z,-1.74
2023-02-02T04:00:09.241Z,-1.70
2023-02-02T04:02:45.148Z,-1.68
2023-02-02T04:05:18.264Z,-1.66
2023-02-02T04:07:51.477Z,-1.63
2023-02-02T04:10:26.051Z,-1.65
2023-02-02T04:12:59.248Z,-1.64
2023-02-02T04:15:32.884Z,-1.65
2023-02-02T04:18:05.922Z,-1.63
2023-02-02T04:20:39.701Z,-1.61
2023-02-02T04:23:12.626Z,-1.57
2023-02-02T04:25:52.766Z,-1.58
2023-02-02T04:28:26.528Z,-1.61
2023-02-02T04:30:59.882Z,-1.67
2023-02-02T04:33:35.545Z,-1.63
2023-02-02T04:36:09.032Z,-1.59
2023-02-02T04:38:43.620Z,-1.55
2023-02-02T04:41:17.008Z,-1.53
2023-02-02T04:43:50.081Z,-1.51
2023-02-02T04:46:23.262Z,-1.50
2023-02-02T04:48:56.272Z,-1.54
2023-02-02T04:51:29.479Z,-1.55
2023-02-02T04:54:02.451Z,-1.55
2023-02-02T04:56:37.014Z,-1.52
2023-02-02T04:59:10.218Z,-1.53
2023-02-02T05:01:42.975Z,-1.53
2023-02-02T05:04:16.076Z,-1.50
2023-02-02T05:06:48.920Z,-1.48
2023-02-02T05:09:22.203Z,-1.45
2023-02-02T05:11:55.662Z,-1.44
2023-02-02T05:14:29.545Z,-1.44
2023-02-02T05:17:02.502Z,-1.41
2023-02-02T05:19:35.578Z,-1.36
2023-02-02T05:22:08.585Z,-1.36
2023-02-02T05:24:41.667Z,-1.34
2023-02-02T05:27:14.820Z,-1.30
2023-02-02T05:29:49.293Z,-1.29
2023-02-02T05:32:22.130Z,-1.24
2023-02-02T05:34:56.567Z,-1.21
2023-02-02T05:37:29.461Z,-1.21
2023-02-02T05:40:02.628Z,-1.23
2023-02-02T05:42:35.872Z,-1.23
2023-02-02T05:45:09.898Z,-1.19
2023-02-02T05:47:42.892Z,-1.13
2023-02-02T05:50:16.550Z,-1.12
2023-02-02T05:52:50.381Z,-1.11
2023-02-02T05:55:23.904Z,-1.06
2023-02-02T05:57:56.682Z,-0.99
2023-02-02T06:00:29.650Z,-0.94
2023-02-02T06:03:02.757Z,-0.92
2023-02-02T06:05:36.612Z,-0.87
2023-02-02T06:08:09.756Z,-0.86
2023-02-02T06:10:49.591Z,-0.84
2023-02-02T06:13:23.106Z,-0.77
2023-02-02T06:15:55.986Z,-0.69
2023-02-02T06:18:28.881Z,-0.61
2023-02-02T06:21:02.466Z,-0.57
2023-02-02T06:23:36.088Z,-0.55
2023-02-02T06:26:09.144Z,-0.50
2023-02-02T06:28:43.718Z,-0.47
2023-02-02T06:31:18.273Z,-0.48
2023-02-02T06:33:57.421Z,-0.47
2023-02-02T06:36:30.474Z,-0.44
2023-02-02T06:39:04.816Z,-0.38
2023-02-02T06:41:38.190Z,-0.34
2023-02-02T06:44:11.250Z,-0.31
2023-02-02T06:46:44.831Z,-0.31
2023-02-02T06:49:17.559Z,-0.27
2023-02-02T06:51:51.474Z,-0.25
2023-02-02T06:54:24.352Z,-0.24
2023-02-02T06:56:57.821Z,-0.18
2023-02-02T06:59:30.638Z,-0.13
2023-02-02T07:02:03.595Z,-0.12
2023-02-02T07:04:36.717Z,-0.09
2023-02-02T07:07:09.784Z,-0.03
2023-02-02T07:09:42.971Z,0.05
2023-02-02T07:12:16.375Z,0.14
2023-02-02T07:14:49.678Z,0.22
2023-02-02T07:17:23.080Z,0.29
2023-02-02T07:19:55.956Z,0.33
2023-02-02T07:22:29.382Z,0.38
2023-02-02T07:25:02.467Z,0.41
2023-02-02T07:27:35.741Z,0.43
2023-02-02T07:30:10.401Z,0.43
2023-02-02T07:32:48.121Z,0.48
2023-02-02T07:35:21.745Z,0.52
2023-02-02T07:37:58.040Z,0.55
2023-02-02T07:40:30.799Z,0.52
2023-02-02T07:43:04.165Z,0.56
2023-02-02T07:45:38.249Z,0.59
2023-02-02T07:48:11.192Z,0.66
2023-02-02T07:50:45.267Z,0.74
2023-02-02T07:53:18.314Z,0.72
2023-02-02T07:55:51.148Z,0.72
2023-02-02T07:58:24.236Z,0.78
2023-02-02T08:00:58.946Z,0.85
2023-02-02T08:03:33.388Z,0.97
2023-02-02T08:06:18.687Z,1.10
2023-02-02T08:08:52.849Z,1.19
2023-02-02T08:11:26.974Z,1.26
2023-02-02T10:34:44.456Z,2.31
2023-02-02T10:37:24.653Z,2.53
2023-02-02T10:40:34.471Z,2.61
2023-02-02T10:43:48.559Z,2.67
2023-02-02T10:46:29.186Z,2.73
2023-02-02T10:49:38.373Z,2.79
2023-02-02T10:52:18.329Z,2.89
2023-02-02T10:55:18.938Z,3.01
2023-02-02T10:58:14.376Z,3.12
2023-02-02T11:00:58.351Z,3.23
2023-02-02T11:03:34.241Z,3.18
2023-02-02T11:06:26.715Z,3.06
2023-02-02T11:09:01.490Z,2.93
2023-02-02T11:11:45.696Z,2.84
2023-02-02T11:14:21.329Z,2.77
2023-02-02T11:16:59.677Z,2.67
2023-02-02T11:19:35.249Z,2.63
2023-02-02T11:22:09.907Z,2.64
2023-02-02T11:24:48.850Z,2.66
2023-02-02T11:27:42.781Z,2.58
2023-02-02T11:30:27.707Z,2.52
2023-02-02T11:33:01.353Z,2.54
2023-02-02T11:35:34.943Z,2.56
2023-02-02T11:38:17.942Z,2.57
2023-02-02T11:41:07.294Z,2.59
2023-02-02T11:43:56.951Z,2.61
2023-02-02T11:46:33.432Z,2.63
2023-02-02T11:49:19.993Z,2.69
2023-02-02T11:52:05.301Z,2.76
2023-02-02T11:54:39.720Z,2.79
2023-02-02T11:57:14.739Z,2.79
2023-02-02T11:59:49.080Z,2.79
2023-02-02T12:02:29.111Z,2.71
2023-02-02T12:05:24.699Z,2.66
2023-02-02T12:07:58.058Z,2.64
2023-02-02T12:10:48.000Z,2.58
2023-02-02T12:13:40.471Z,2.58
2023-02-02T12:16:38.738Z,2.60
2023-02-02T12:19:42.281Z,2.56
2023-02-02T12:22:44.245Z,2.51
2023-02-02T12:25:56.559Z,2.41
2023-02-02T12:29:06.067Z,2.33
2023-02-02T12:32:02.729Z,2.29
2023-02-02T12:35:01.560Z,2.27
2023-02-02T12:38:14.197Z,2.30
2023-02-02T12:41:14.286Z,2.35
2023-02-02T12:43:54.739Z,2.39
2023-02-02T12:46:34.839Z,2.39
2023-02-02T12:49:14.982Z,2.39
2023-02-02T12:52:19.597Z,2.41
2023-02-02T12:55:18.568Z,2.46
2023-02-02T12:57:55.153Z,2.51
2023-02-02T13:01:05.401Z,2.51
2023-02-02T13:04:02.874Z,2.46
2023-02-02T13:06:56.732Z,2.44
2023-02-02T13:09:50.191Z,2.38
2023-02-02T13:12:24.587Z,2.30
2023-02-02T13:15:05.002Z,2.26
2023-02-02T13:17:58.079Z,2.22
2023-02-02T13:20:49.495Z,2.20
2023-02-02T13:23:36.249Z,2.16
2023-02-02T13:26:21.683Z,2.14
2023-02-02T13:29:10.964Z,2.14
2023-02-02T13:31:54.815Z,2.13
2023-02-02T13:34:32.621Z,2.10
2023-02-02T13:37:10.275Z,2.12
2023-02-02T13:39:50.961Z,2.14
2023-02-02T13:42:36.528Z,2.15
2023-02-02T13:45:33.220Z,2.14
2023-02-02T13:48:20.386Z,2.12
2023-02-02T13:51:31.531Z,2.10
2023-02-02T13:54:58.404Z,2.04
2023-02-02T13:57:54.053Z,1.98
2023-02-02T14:00:32.732Z,1.92
2023-02-02T14:03:41.179Z,1.90
2023-02-02T14:06:17.155Z,1.87
2023-02-02T14:09:04.505Z,1.85
2023-02-02T14:11:41.931Z,1.86
2023-02-02T14:14:40.140Z,1.89
2023-02-02T14:17:26.507Z,1.89
2023-02-02T14:20:06.754Z,1.90
2023-02-02T14:22:50.999Z,1.87
2023-02-02T14:25:40.646Z,1.84
2023-02-02T14:28:16.690Z,1.81
2023-02-02T14:30:54.347Z,1.79
2023-02-02T14:33:32.554Z,1.76
2023-02-02T14:36:06.763Z,1.77
2023-02-02T14:38:59.242Z,1.80
2023-02-02T14:42:06.724Z,1.80
2023-02-02T14:45:01.570Z,1.76
2023-02-02T14:48:05.629Z,1.74
2023-02-02T14:50:52.321Z,1.76
2023-02-02T14:53:39.217Z,1.76
2023-02-02T14:56:16.155Z,1.76
2023-02-02T14:58:56.157Z,1.75
2023-02-02T15:01:35.097Z,1.74
2023-02-02T15:04:26.465Z,1.72
2023-02-02T15:07:21.668Z,1.63
2023-02-02T15:09:56.866Z,1.59
2023-02-02T15:12:50.527Z,1.57
2023-02-02T15:15:31.017Z,1.56
2023-02-02T15:18:19.800Z,1.55
2023-02-02T15:20:54.994Z,1.52
2023-02-02T15:23:43.290Z,1.47
2023-02-02T15:26:26.966Z,1.45
2023-02-02T15:29:18.823Z,1.44
2023-02-02T15:31:54.968Z,1.40
2023-02-02T15:34:44.157Z,1.35
2023-02-02T15:37:24.835Z,1.35
2023-02-02T15:40:00.487Z,1.36
2023-02-02T15:42:56.415Z,1.36
2023-02-02T15:45:46.349Z,1.35
2023-02-02T15:48:30.117Z,1.38
2023-02-02T15:51:17.907Z,1.38
2023-02-02T15:53:52.238Z,1.36
2023-02-02T15:56:32.928Z,1.40
2023-02-02T15:59:16.687Z,1.43
2023-02-02T16:01:56.601Z,1.42
2023-02-02T16:04:37.451Z,1.39
2023-02-02T16:07:20.311Z,1.38
2023-02-02T16:09:53.390Z,1.39
2023-02-02T16:12:26.714Z,1.40
2023-02-02T16:15:00.252Z,1.42
2023-02-02T16:17:36.084Z,1.42
2023-02-02T16:20:18.367Z,1.42
2023-02-02T16:22:51.886Z,1.40
2023-02-02T16:25:25.913Z,1.36
2023-02-02T16:28:01.262Z,1.36
2023-02-02T16:30:40.072Z,1.35
2023-02-02T16:33:40.705Z,1.34
2023-02-02T16:36:31.086Z,1.34
2023-02-02T16:39:04.388Z,1.35
2023-02-02T16:41:42.005Z,1.36
2023-02-02T16:44:57.208Z,1.35
2023-02-02T16:47:33.972Z,1.34
2023-02-02T16:50:28.923Z,1.34
2023-02-02T16:53:09.685Z,1.34
2023-02-02T16:55:50.986Z,1.35
2023-02-02T16:58:26.959Z,1.36
2023-02-02T17:01:15.591Z,1.39
2023-02-02T17:03:53.461Z,1.40
2023-02-02T17:06:46.244Z,1.38
2023-02-02T17:09:34.737Z,1.35
2023-02-02T17:12:32.716Z,1.38
2023-02-02T17:15:02.147Z,1.36
2023-02-02T17:17:35.931Z,1.29
2023-02-02T17:20:10.913Z,1.24
2023-02-02T17:22:49.084Z,1.21
2023-02-02T17:25:32.889Z,1.20
2023-02-02T17:28:09.107Z,1.19
2023-02-02T17:30:52.404Z,1.18
2023-02-02T17:33:25.463Z,1.16
2023-02-02T17:35:58.729Z,1.16
2023-02-02T17:38:32.803Z,1.14
2023-02-02T17:41:04.876Z,1.12
2023-02-02T17:43:38.182Z,1.12
2023-02-02T17:46:16.087Z,1.10
2023-02-02T17:48:50.164Z,1.11
2023-02-02T17:51:23.272Z,1.06
2023-02-02T17:53:58.137Z,1.06
2023-02-02T17:56:31.715Z,1.03
2023-02-02T17:59:04.656Z,1.01
2023-02-02T18:01:41.060Z,0.98
2023-02-02T18:04:13.134Z,0.97
2023-02-02T18:06:45.806Z,0.95
2023-02-02T18:09:19.716Z,0.94
2023-02-02T18:11:53.300Z,0.96
2023-02-02T18:14:26.163Z,0.97
2023-02-02T18:16:59.276Z,0.96
2023-02-02T18:19:33.999Z,0.98
2023-02-02T18:22:07.929Z,0.99
2023-02-02T18:24:41.847Z,0.98
2023-02-02T18:27:16.166Z,0.96
2023-02-02T18:29:49.712Z,0.97
2023-02-02T18:32:22.445Z,0.98
2023-02-02T18:34:56.318Z,0.98
2023-02-02T18:37:29.157Z,0.96
2023-02-02T18:40:02.036Z,0.94
2023-02-02T18:42:35.182Z,0.91
2023-02-02T18:45:09.444Z,0.87
2023-02-02T18:47:42.923Z,0.83
2023-02-02T18:50:16.021Z,0.84
2023-02-02T18:52:49.095Z,0.82
2023-02-02T18:55:23.123Z,0.78
2023-02-02T18:57:56.934Z,0.78
2023-02-02T19:00:30.092Z,0.78
2023-02-02T19:03:02.954Z,0.79
2023-02-02T19:05:53.861Z,0.78
2023-02-02T19:08:27.194Z,0.77
2023-02-02T19:11:01.954Z,0.72
2023-02-02T19:13:36.341Z,0.72
2023-02-02T19:16:26.047Z,0.68
2023-02-02T19:19:02.109Z,0.67
2023-02-02T19:21:35.363Z,0.64
2023-02-02T19:24:14.009Z,0.64
2023-02-02T19:26:51.582Z,0.64
2023-02-02T19:29:27.580Z,0.66
2023-02-02T19:32:08.668Z,0.67
2023-02-02T19:34:42.391Z,0.67
2023-02-02T19:37:23.858Z,0.64
2023-02-02T19:40:10.468Z,0.66
2023-02-02T19:42:49.016Z,0.66
2023-02-02T19:45:27.368Z,0.71
2023-02-02T19:48:04.322Z,0.72
2023-02-02T19:50:41.736Z,0.66
2023-02-02T19:53:21.794Z,0.62
2023-02-02T19:55:55.146Z,0.61
2023-02-02T19:58:32.757Z,0.56
2023-02-02T20:01:10.305Z,0.50
2023-02-02T20:03:45.554Z,0.44
2023-02-02T20:06:29.752Z,0.38
2023-02-02T20:09:05.077Z,0.34
2023-02-02T20:11:51.311Z,0.30
2023-02-02T20:14:33.064Z,0.29
2023-02-02T20:17:10.680Z,0.24
2023-02-02T20:19:44.650Z,0.16
2023-02-02T20:22:29.862Z,0.14
2023-02-02T20:25:09.501Z,0.11
2023-02-02T20:27:42.351Z,0.06
2023-02-02T20:30:30.503Z,0.02
2023-02-02T20:33:06.356Z,0.01
2023-02-02T20:35:43.592Z,-0.02
2023-02-02T20:38:32.259Z,-0.03
2023-02-02T20:41:06.552Z,-0.03
2023-02-02T20:43:39.873Z,-0.06
2023-02-02T20:46:13.544Z,-0.10
2023-02-02T20:48:48.430Z,-0.15
2023-02-02T20:51:21.243Z,-0.17
2023-02-02T20:53:55.923Z,-0.19
2023-02-02T20:56:28.983Z,-0.18
2023-02-02T20:59:02.212Z,-0.23
2023-02-02T21:01:35.357Z,-0.25
2023-02-02T21:04:08.410Z,-0.25
2023-02-02T21:06:43.197Z,-0.26
2023-02-02T21:09:17.576Z,-0.29
2023-02-02T21:11:49.768Z,-0.32
2023-02-02T21:14:22.676Z,-0.40
2023-02-02T21:17:09.064Z,-0.48
2023-02-02T21:19:30.251Z,-0.51
2023-02-02T21:22:03.126Z,-0.53
2023-02-02T21:24:36.443Z,-0.53
2023-02-02T21:27:09.638Z,-0.55
2023-02-02T21:29:42.863Z,-0.56
2023-02-02T21:32:15.857Z,-0.57
2023-02-02T21:34:50.335Z,-0.57
2023-02-02T21:37:23.178Z,-0.56
2023-02-02T21:39:59.960Z,-0.55
2023-02-02T21:42:35.836Z,-0.53
2023-02-02T21:45:35.062Z,-0.55
2023-02-02T21:48:24.761Z,-0.57
2023-02-02T21:50:59.588Z,-0.62
2023-02-02T21:53:34.042Z,-0.68
2023-02-02T21:56:09.931Z,-0.72
2023-02-02T21:58:44.913Z,-0.78
2023-02-02T22:01:41.284Z,-0.84
2023-02-02T22:04:28.658Z,-0.94
2023-02-02T22:07:16.447Z,-1.00
2023-02-02T22:09:51.304Z,-1.01
2023-02-02T22:12:27.954Z,-0.96
2023-02-02T22:15:03.856Z,-0.89
2023-02-02T22:17:42.244Z,-0.86
2023-02-02T22:20:31.783Z,-0.82
2023-02-02T22:23:05.956Z,-0.79
2023-02-02T22:25:39.865Z,-0.78
2023-02-02T22:28:32.772Z,-0.76
2023-02-02T22:31:05.887Z,-0.75
2023-02-02T22:33:39.280Z,-0.71
2023-02-02T22:36:13.151Z,-0.70
2023-02-02T22:38:46.141Z,-0.69
2023-02-02T22:41:18.963Z,-0.68
2023-02-02T22:43:51.900Z,-0.66
2023-02-02T22:46:24.777Z,-0.64
2023-02-02T22:48:57.708Z,-0.62
2023-02-02T22:51:31.179Z,-0.60
2023-02-02T22:54:04.221Z,-0.56
2023-02-02T22:56:37.534Z,-0.51
2023-02-02T22:59:11.251Z,-0.48
2023-02-02T23:01:44.206Z,-0.45
2023-02-02T23:04:17.338Z,-0.44
2023-02-02T23:06:50.468Z,-0.40
2023-02-02T23:09:23.448Z,-0.37
2023-02-02T23:11:56.360Z,-0.35
2023-02-02T23:14:29.380Z,-0.35
2023-02-02T23:17:02.408Z,-0.37
2023-02-02T23:19:35.350Z,-0.37
2023-02-02T23:22:08.691Z,-0.39
2023-02-02T23:24:42.266Z,-0.42
2023-02-02T23:27:15.459Z,-0.44
2023-02-02T23:29:48.243Z,-0.45
2023-02-02T23:32:21.477Z,-0.44
2023-02-02T23:34:54.798Z,-0.44
2023-02-02T23:37:27.633Z,-0.47
2023-02-02T23:40:00.833Z,-0.48
2023-02-02T23:42:34.702Z,-0.48
2023-02-02T23:45:09.435Z,-0.45
2023-02-02T23:47:42.258Z,-0.44
2023-02-02T23:50:15.954Z,-0.43
2023-02-02T23:52:48.890Z,-0.45
2023-02-02T23:55:22.669Z,-0.45
2023-02-02T23:57:55.583Z,-0.49
